sensor_id;sensor_type;location;lat;lon;timestamp;pressure;altitude;pressure_sealevel;temperature;humidity
15314;BME280;7757;52.626;4.746;2023-02-10T00:00:51;103283.03;;;13.21;65.61
15314;BME280;7757;52.626;4.746;2023-02-10T00:03:37;103295.19;;;13.25;64.88
15314;BME280;7757;52.626;4.746;2023-02-10T00:06:25;103288.13;;;13.24;66.10
15314;BME280;7757;52.626;4.746;2023-02-10T00:09:13;103290.22;;;13.21;65.24
15314;BME280;7757;52.626;4.746;2023-02-10T00:11:59;103294.47;;;13.23;65.31
15314;BME280;7757;52.626;4.746;2023-02-10T00:14:45;103298.88;;;13.24;65.25
15314;BME280;7757;52.626;4.746;2023-02-10T00:17:31;103296.47;;;13.21;65.20
15314;BME280;7757;52.626;4.746;2023-02-10T00:20:16;103311.31;;;13.25;65.91
15314;BME280;7757;52.626;4.746;2023-02-10T00:23:05;103307.50;;;13.18;65.85
15314;BME280;7757;52.626;4.746;2023-02-10T00:25:51;103304.81;;;13.18;65.37
15314;BME280;7757;52.626;4.746;2023-02-10T00:28:36;103320.66;;;13.21;65.61
15314;BME280;7757;52.626;4.746;2023-02-10T00:31:22;103315.28;;;13.21;65.79
15314;BME280;7757;52.626;4.746;2023-02-10T00:34:10;103313.44;;;13.22;65.95
15314;BME280;7757;52.626;4.746;2023-02-10T00:36:56;103316.25;;;13.20;65.67
15314;BME280;7757;52.626;4.746;2023-02-10T00:39:46;103307.09;;;13.13;66.46
15314;BME280;7757;52.626;4.746;2023-02-10T00:42:32;103318.25;;;13.18;66.78
15314;BME280;7757;52.626;4.746;2023-02-10T00:45:25;103327.28;;;13.17;65.51
15314;BME280;7757;52.626;4.746;2023-02-10T00:48:11;103326.31;;;13.18;65.75
15314;BME280;7757;52.626;4.746;2023-02-10T00:50:58;103328.28;;;13.16;66.39
15314;BME280;7757;52.626;4.746;2023-02-10T00:53:44;103330.13;;;13.16;65.67
15314;BME280;7757;52.626;4.746;2023-02-10T00:56:35;103310.47;;;13.15;66.02
15314;BME280;7757;52.626;4.746;2023-02-10T00:59:22;103309.50;;;13.16;66.03
15314;BME280;7757;52.626;4.746;2023-02-10T01:02:07;103315.69;;;13.17;65.85
15314;BME280;7757;52.626;4.746;2023-02-10T01:04:53;103324.75;;;13.16;66.06
15314;BME280;7757;52.626;4.746;2023-02-10T01:07:38;103324.75;;;13.16;66.26
15314;BME280;7757;52.626;4.746;2023-02-10T01:10:24;103327.03;;;13.11;66.42
15314;BME280;7757;52.626;4.746;2023-02-10T01:13:14;103329.56;;;13.12;65.97
15314;BME280;7757;52.626;4.746;2023-02-10T01:16:01;103333.09;;;13.13;66.33
15314;BME280;7757;52.626;4.746;2023-02-10T01:18:49;103346.38;;;13.14;65.83
15314;BME280;7757;52.626;4.746;2023-02-10T01:21:34;103348.94;;;13.16;66.10
15314;BME280;7757;52.626;4.746;2023-02-10T01:24:22;103352.75;;;13.13;66.13
15314;BME280;7757;52.626;4.746;2023-02-10T01:27:08;103354.59;;;13.13;65.96
15314;BME280;7757;52.626;4.746;2023-02-10T01:29:55;103347.34;;;13.04;66.38
15314;BME280;7757;52.626;4.746;2023-02-10T01:32:41;103355.56;;;13.12;65.70
15314;BME280;7757;52.626;4.746;2023-02-10T01:35:27;103354.59;;;13.13;65.76
15314;BME280;7757;52.626;4.746;2023-02-10T01:38:14;103352.88;;;13.12;65.63
15314;BME280;7757;52.626;4.746;2023-02-10T01:40:59;103354.72;;;13.11;65.27
15314;BME280;7757;52.626;4.746;2023-02-10T01:45:00;103357.97;;;13.15;66.27
15314;BME280;7757;52.626;4.746;2023-02-10T01:47:13;103349.06;;;13.14;65.58
15314;BME280;7757;52.626;4.746;2023-02-10T01:49:58;103342.13;;;13.12;66.32
15314;BME280;7757;52.626;4.746;2023-02-10T01:52:44;103334.94;;;13.12;66.04
15314;BME280;7757;52.626;4.746;2023-02-10T01:55:32;103330.00;;;13.08;66.13
15314;BME280;7757;52.626;4.746;2023-02-10T01:58:23;103338.75;;;13.10;65.90
15314;BME280;7757;52.626;4.746;2023-02-10T02:01:10;103352.59;;;13.15;66.00
15314;BME280;7757;52.626;4.746;2023-02-10T02:03:58;103351.91;;;13.13;65.99
15314;BME280;7757;52.626;4.746;2023-02-10T02:06:46;103351.75;;;13.14;65.85
15314;BME280;7757;52.626;4.746;2023-02-10T02:09:33;103346.38;;;13.14;66.34
15314;BME280;7757;52.626;4.746;2023-02-10T02:12:22;103356.44;;;13.12;66.56
15314;BME280;7757;52.626;4.746;2023-02-10T02:15:14;103340.47;;;13.11;66.07
15314;BME280;7757;52.626;4.746;2023-02-10T02:18:11;103348.09;;;13.15;66.54
15314;BME280;7757;52.626;4.746;2023-02-10T02:24:44;103351.75;;;13.14;66.15
15314;BME280;7757;52.626;4.746;2023-02-10T02:27:53;103362.50;;;13.14;66.10
15314;BME280;7757;52.626;4.746;2023-02-10T02:31:05;103356.16;;;13.15;65.68
15314;BME280;7757;52.626;4.746;2023-02-10T02:33:58;103358.97;;;13.14;65.39
15314;BME280;7757;52.626;4.746;2023-02-10T02:36:48;103360.81;;;13.13;66.38
15314;BME280;7757;52.626;4.746;2023-02-10T02:39:36;103360.66;;;13.15;65.33
15314;BME280;7757;52.626;4.746;2023-02-10T02:42:23;103363.50;;;13.13;65.37
15314;BME280;7757;52.626;4.746;2023-02-10T02:45:12;103360.81;;;13.13;64.92
15314;BME280;7757;52.626;4.746;2023-02-10T02:48:12;103352.19;;;13.10;65.33
15314;BME280;7757;52.626;4.746;2023-02-10T02:51:09;103361.97;;;13.11;65.58
15314;BME280;7757;52.626;4.746;2023-02-10T02:54:02;103353.03;;;13.10;65.55
15314;BME280;7757;52.626;4.746;2023-02-10T02:56:59;103359.97;;;13.13;66.03
15314;BME280;7757;52.626;4.746;2023-02-10T02:59:57;103353.91;;;13.11;66.15
15314;BME280;7757;52.626;4.746;2023-02-10T03:02:45;103356.88;;;13.08;64.73
15314;BME280;7757;52.626;4.746;2023-02-10T03:05:32;103352.44;;;13.07;65.65
15314;BME280;7757;52.626;4.746;2023-02-10T03:08:20;103362.78;;;13.11;65.37
15314;BME280;7757;52.626;4.746;2023-02-10T03:11:05;103358.41;;;13.10;65.82
15314;BME280;7757;52.626;4.746;2023-02-10T03:13:52;103361.81;;;13.12;65.93
15314;BME280;7757;52.626;4.746;2023-02-10T03:16:38;103361.97;;;13.11;65.83
15314;BME280;7757;52.626;4.746;2023-02-10T03:19:24;103358.41;;;13.10;65.47
15314;BME280;7757;52.626;4.746;2023-02-10T03:22:11;103356.72;;;13.09;64.66
15314;BME280;7757;52.626;4.746;2023-02-10T03:24:58;103356.88;;;13.08;65.52
15314;BME280;7757;52.626;4.746;2023-02-10T03:27:43;103360.09;;;13.11;65.51
15314;BME280;7757;52.626;4.746;2023-02-10T03:30:29;103362.09;;;13.09;65.31
15314;BME280;7757;52.626;4.746;2023-02-10T03:33:16;103370.72;;;13.13;66.01
15314;BME280;7757;52.626;4.746;2023-02-10T03:36:04;103366.84;;;13.06;66.59
15314;BME280;7757;52.626;4.746;2023-02-10T03:38:49;103373.69;;;13.10;64.93
15314;BME280;7757;52.626;4.746;2023-02-10T03:41:39;103370.03;;;13.11;64.65
15314;BME280;7757;52.626;4.746;2023-02-10T03:44:25;103367.44;;;13.09;65.27
15314;BME280;7757;52.626;4.746;2023-02-10T03:47:13;103369.41;;;13.07;65.98
15314;BME280;7757;52.626;4.746;2023-02-10T03:50:01;103381.88;;;13.08;65.27
15314;BME280;7757;52.626;4.746;2023-02-10T03:52:47;103376.63;;;13.07;65.73
15314;BME280;7757;52.626;4.746;2023-02-10T03:55:35;103372.69;;;13.11;65.19
15314;BME280;7757;52.626;4.746;2023-02-10T03:58:23;103358.78;;;13.06;65.41
15314;BME280;7757;52.626;4.746;2023-02-10T04:01:10;103350.47;;;13.09;65.99
15314;BME280;7757;52.626;4.746;2023-02-10T04:03:56;103355.97;;;13.07;65.40
15314;BME280;7757;52.626;4.746;2023-02-10T04:06:41;103345.50;;;13.04;65.68
15314;BME280;7757;52.626;4.746;2023-02-10T04:09:26;103348.03;;;13.06;64.53
15314;BME280;7757;52.626;4.746;2023-02-10T04:12:12;103354.28;;;13.06;66.42
15314;BME280;7757;52.626;4.746;2023-02-10T04:15:00;103352.84;;;13.02;64.93
15314;BME280;7757;52.626;4.746;2023-02-10T04:17:47;103356.97;;;13.06;66.00
15314;BME280;7757;52.626;4.746;2023-02-10T04:20:33;103362.31;;;13.06;64.55
15314;BME280;7757;52.626;4.746;2023-02-10T04:23:19;103356.88;;;13.08;66.18
15314;BME280;7757;52.626;4.746;2023-02-10T04:26:05;103350.72;;;13.06;65.09
15314;BME280;7757;52.626;4.746;2023-02-10T04:28:51;103363.47;;;13.04;65.54
15314;BME280;7757;52.626;4.746;2023-02-10T04:31:38;103361.63;;;13.04;65.58
15314;BME280;7757;52.626;4.746;2023-02-10T04:34:24;103362.31;;;13.06;65.71
15314;BME280;7757;52.626;4.746;2023-02-10T04:37:09;103365.28;;;13.03;66.31
15314;BME280;7757;52.626;4.746;2023-02-10T04:39:55;103362.47;;;13.05;65.69
15314;BME280;7757;52.626;4.746;2023-02-10T04:42:40;103361.47;;;13.06;65.62
15314;BME280;7757;52.626;4.746;2023-02-10T04:45:26;103357.13;;;13.05;65.17
15314;BME280;7757;52.626;4.746;2023-02-10T04:48:14;103348.75;;;12.98;65.97
15314;BME280;7757;52.626;4.746;2023-02-10T04:51:05;103351.75;;;13.05;65.34
15314;BME280;7757;52.626;4.746;2023-02-10T04:53:50;103356.25;;;13.04;65.91
15314;BME280;7757;52.626;4.746;2023-02-10T04:56:36;103351.56;;;12.97;66.34
15314;BME280;7757;52.626;4.746;2023-02-10T04:59:21;103347.63;;;13.01;65.67
15314;BME280;7757;52.626;4.746;2023-02-10T05:02:07;103356.38;;;13.03;64.75
15314;BME280;7757;52.626;4.746;2023-02-10T05:04:54;103349.34;;;13.02;65.05
15314;BME280;7757;52.626;4.746;2023-02-10T05:07:40;103340.41;;;13.01;64.83
15314;BME280;7757;52.626;4.746;2023-02-10T05:10:27;103344.94;;;13.01;65.40
15314;BME280;7757;52.626;4.746;2023-02-10T05:13:13;103343.38;;;12.98;65.00
15314;BME280;7757;52.626;4.746;2023-02-10T05:15:58;103353.13;;;12.99;65.27
15314;BME280;7757;52.626;4.746;2023-02-10T05:18:46;103350.31;;;13.01;64.99
15314;BME280;7757;52.626;4.746;2023-02-10T05:21:33;103348.59;;;13.00;64.91
15314;BME280;7757;52.626;4.746;2023-02-10T05:24:18;103346.78;;;13.00;66.29
15314;BME280;7757;52.626;4.746;2023-02-10T05:27:05;103344.53;;;12.96;65.50
15314;BME280;7757;52.626;4.746;2023-02-10T05:29:52;103340.53;;;13.00;65.11
15314;BME280;7757;52.626;4.746;2023-02-10T05:32:39;103353.13;;;12.99;65.71
15314;BME280;7757;52.626;4.746;2023-02-10T05:35:25;103352.41;;;12.97;65.45
15314;BME280;7757;52.626;4.746;2023-02-10T05:38:12;103354.81;;;13.00;64.99
15314;BME280;7757;52.626;4.746;2023-02-10T05:40:58;103348.88;;;12.97;65.44
15314;BME280;7757;52.626;4.746;2023-02-10T05:43:44;103350.59;;;12.98;65.12
15314;BME280;7757;52.626;4.746;2023-02-10T05:46:29;103345.34;;;12.96;65.80
15314;BME280;7757;52.626;4.746;2023-02-10T05:49:15;103348.88;;;12.97;64.47
15314;BME280;7757;52.626;4.746;2023-02-10T05:52:01;103341.09;;;12.94;65.69
15314;BME280;7757;52.626;4.746;2023-02-10T05:54:48;103344.53;;;12.96;65.33
15314;BME280;7757;52.626;4.746;2023-02-10T05:57:34;103349.16;;;12.94;65.07
15314;BME280;7757;52.626;4.746;2023-02-10T06:00:20;103359.78;;;12.95;65.71
15314;BME280;7757;52.626;4.746;2023-02-10T06:03:07;103359.78;;;12.95;65.58
15314;BME280;7757;52.626;4.746;2023-02-10T06:05:53;103374.06;;;12.96;65.92
15314;BME280;7757;52.626;4.746;2023-02-10T06:08:38;103379.28;;;12.97;64.90
15314;BME280;7757;52.626;4.746;2023-02-10T06:11:26;103377.72;;;12.95;65.70
15314;BME280;7757;52.626;4.746;2023-02-10T06:14:11;103374.19;;;12.94;65.65
15314;BME280;7757;52.626;4.746;2023-02-10T06:16:57;103370.53;;;12.95;65.11
15314;BME280;7757;52.626;4.746;2023-02-10T06:19:43;103361.72;;;12.93;65.43
15314;BME280;7757;52.626;4.746;2023-02-10T06:22:28;103359.06;;;12.93;65.13
15314;BME280;7757;52.626;4.746;2023-02-10T06:25:16;103363.44;;;12.94;65.35
15314;BME280;7757;52.626;4.746;2023-02-10T06:28:05;103363.72;;;12.91;65.13
15314;BME280;7757;52.626;4.746;2023-02-10T06:30:54;103368.81;;;12.94;64.47
15314;BME280;7757;52.626;4.746;2023-02-10T06:33:39;103363.59;;;12.93;65.68
15314;BME280;7757;52.626;4.746;2023-02-10T06:36:27;103350.44;;;12.90;66.02
15314;BME280;7757;52.626;4.746;2023-02-10T06:39:12;103360.91;;;12.93;64.93
15314;BME280;7757;52.626;4.746;2023-02-10T06:41:58;103355.66;;;12.91;64.97
15314;BME280;7757;52.626;4.746;2023-02-10T06:44:48;103359.34;;;12.90;64.53
15314;BME280;7757;52.626;4.746;2023-02-10T06:47:34;103363.88;;;12.90;65.73
15314;BME280;7757;52.626;4.746;2023-02-10T06:50:19;103363.88;;;12.90;65.25
15314;BME280;7757;52.626;4.746;2023-02-10T06:53:06;103365.44;;;12.92;64.91
15314;BME280;7757;52.626;4.746;2023-02-10T06:55:55;103373.06;;;12.87;65.85
15314;BME280;7757;52.626;4.746;2023-02-10T06:58:41;103370.81;;;12.92;65.11
15314;BME280;7757;52.626;4.746;2023-02-10T07:01:32;103382.25;;;12.94;64.88
15314;BME280;7757;52.626;4.746;2023-02-10T07:04:19;103376.03;;;12.94;65.15
15314;BME280;7757;52.626;4.746;2023-02-10T07:07:07;103372.78;;;12.90;65.88
15314;BME280;7757;52.626;4.746;2023-02-10T07:09:53;103368.53;;;12.87;65.57
15314;BME280;7757;52.626;4.746;2023-02-10T07:12:39;103379.72;;;12.93;65.19
15314;BME280;7757;52.626;4.746;2023-02-10T07:15:25;103393.97;;;12.93;65.53
15314;BME280;7757;52.626;4.746;2023-02-10T07:18:12;103393.84;;;12.95;65.17
15314;BME280;7757;52.626;4.746;2023-02-10T07:20:59;103391.00;;;12.96;65.23
15314;BME280;7757;52.626;4.746;2023-02-10T07:23:44;103379.56;;;12.94;65.14
15314;BME280;7757;52.626;4.746;2023-02-10T07:26:30;103381.13;;;12.97;65.25
15314;BME280;7757;52.626;4.746;2023-02-10T07:29:18;103378.72;;;12.94;64.86
15314;BME280;7757;52.626;4.746;2023-02-10T07:32:04;103395.28;;;12.99;64.27
15314;BME280;7757;52.626;4.746;2023-02-10T07:34:51;103391.28;;;12.93;65.20
15314;BME280;7757;52.626;4.746;2023-02-10T07:37:37;103405.00;;;13.00;64.08
15314;BME280;7757;52.626;4.746;2023-02-10T07:40:23;103398.09;;;12.97;64.76
15314;BME280;7757;52.626;4.746;2023-02-10T07:43:13;103401.47;;;12.99;64.90
15314;BME280;7757;52.626;4.746;2023-02-10T07:45:59;103403.75;;;13.04;64.02
15314;BME280;7757;52.626;4.746;2023-02-10T07:48:45;103396.56;;;13.04;64.65
15314;BME280;7757;52.626;4.746;2023-02-10T07:51:33;103396.56;;;13.04;65.15
15314;BME280;7757;52.626;4.746;2023-02-10T07:54:19;103416.06;;;13.06;63.92
15314;BME280;7757;52.626;4.746;2023-02-10T07:57:05;103414.34;;;13.05;64.74
15314;BME280;7757;52.626;4.746;2023-02-10T07:59:52;103424.97;;;13.07;63.83
15314;BME280;7757;52.626;4.746;2023-02-10T08:02:37;103415.34;;;13.04;64.23
15314;BME280;7757;52.626;4.746;2023-02-10T08:05:23;103418.38;;;13.11;64.48
15314;BME280;7757;52.626;4.746;2023-02-10T08:08:13;103407.63;;;13.11;64.12
15314;BME280;7757;52.626;4.746;2023-02-10T08:10:59;103409.47;;;13.10;64.25
15314;BME280;7757;52.626;4.746;2023-02-10T08:13:45;103410.00;;;13.14;63.57
15314;BME280;7757;52.626;4.746;2023-02-10T08:16:30;103405.22;;;13.17;64.54
15314;BME280;7757;52.626;4.746;2023-02-10T08:19:16;103411.03;;;13.22;65.14
15314;BME280;7757;52.626;4.746;2023-02-10T08:22:02;103415.69;;;13.30;64.99
15314;BME280;7757;52.626;4.746;2023-02-10T08:24:48;103417.69;;;13.47;64.17
15314;BME280;7757;52.626;4.746;2023-02-10T08:27:34;103425.75;;;13.57;62.64
15314;BME280;7757;52.626;4.746;2023-02-10T08:30:20;103413.28;;;13.56;63.38
15314;BME280;7757;52.626;4.746;2023-02-10T08:33:06;103415.84;;;13.57;63.60
15314;BME280;7757;52.626;4.746;2023-02-10T08:35:52;103425.88;;;13.65;63.53
15314;BME280;7757;52.626;4.746;2023-02-10T08:38:38;103428.44;;;13.66;63.51
15314;BME280;7757;52.626;4.746;2023-02-10T08:41:26;103423.19;;;13.65;63.90
15314;BME280;7757;52.626;4.746;2023-02-10T08:44:14;103420.50;;;13.65;63.90
15314;BME280;7757;52.626;4.746;2023-02-10T08:46:59;103413.56;;;13.62;63.27
15314;BME280;7757;52.626;4.746;2023-02-10T08:49:45;103405.22;;;13.56;63.79
15314;BME280;7757;52.626;4.746;2023-02-10T08:52:31;103414.25;;;13.64;63.50
15314;BME280;7757;52.626;4.746;2023-02-10T08:55:17;103415.00;;;13.66;62.97
15314;BME280;7757;52.626;4.746;2023-02-10T08:58:04;103413.44;;;13.64;63.20
15314;BME280;7757;52.626;4.746;2023-02-10T09:00:50;103412.44;;;13.65;62.99
15314;BME280;7757;52.626;4.746;2023-02-10T09:03:37;103423.06;;;13.66;64.07
15314;BME280;7757;52.626;4.746;2023-02-10T09:06:26;103426.28;;;13.89;62.63
15314;BME280;7757;52.626;4.746;2023-02-10T09:09:16;103422.72;;;13.98;62.68
15314;BME280;7757;52.626;4.746;2023-02-10T09:12:03;103424.66;;;14.15;62.90
15314;BME280;7757;52.626;4.746;2023-02-10T09:14:51;103420.22;;;14.24;62.01
15314;BME280;7757;52.626;4.746;2023-02-10T09:17:36;103428.31;;;14.33;61.69
15314;BME280;7757;52.626;4.746;2023-02-10T09:20:22;103425.72;;;14.41;61.81
15314;BME280;7757;52.626;4.746;2023-02-10T09:23:09;103433.38;;;14.46;62.48
15314;BME280;7757;52.626;4.746;2023-02-10T09:25:55;103414.06;;;14.50;61.44
15314;BME280;7757;52.626;4.746;2023-02-10T09:28:41;103410.94;;;14.55;61.47
15314;BME280;7757;52.626;4.746;2023-02-10T09:31:28;103418.53;;;14.69;61.75
15314;BME280;7757;52.626;4.746;2023-02-10T09:34:14;103403.03;;;14.71;61.39
15314;BME280;7757;52.626;4.746;2023-02-10T09:37:00;103416.72;;;14.87;61.54
15314;BME280;7757;52.626;4.746;2023-02-10T09:39:45;103414.13;;;14.95;61.12
15314;BME280;7757;52.626;4.746;2023-02-10T09:42:41;103418.44;;;15.06;60.29
15314;BME280;7757;52.626;4.746;2023-02-10T09:45:34;103420.50;;;15.12;60.20
15314;BME280;7757;52.626;4.746;2023-02-10T09:48:29;103398.66;;;15.15;59.90
15314;BME280;7757;52.626;4.746;2023-02-10T09:51:29;103395.75;;;15.26;60.25
15314;BME280;7757;52.626;4.746;2023-02-10T09:54:22;103403.59;;;15.37;59.79
15314;BME280;7757;52.626;4.746;2023-02-10T09:57:13;103400.41;;;15.42;59.64
15314;BME280;7757;52.626;4.746;2023-02-10T10:00:00;103406.53;;;15.44;59.67
15314;BME280;7757;52.626;4.746;2023-02-10T10:02:49;103403.38;;;15.48;59.31
15314;BME280;7757;52.626;4.746;2023-02-10T10:05:55;103408.94;;;15.47;59.84
15314;BME280;7757;52.626;4.746;2023-02-10T10:08:50;103415.31;;;15.46;59.15
15314;BME280;7757;52.626;4.746;2023-02-10T10:11:43;103415.31;;;15.46;59.33
15314;BME280;7757;52.626;4.746;2023-02-10T10:14:35;103407.28;;;15.36;59.50
15314;BME280;7757;52.626;4.746;2023-02-10T10:17:54;103438.63;;;15.47;59.15
15314;BME280;7757;52.626;4.746;2023-02-10T10:20:50;103435.03;;;15.46;59.24
15314;BME280;7757;52.626;4.746;2023-02-10T10:23:49;103438.47;;;15.39;59.59
15314;BME280;7757;52.626;4.746;2023-02-10T10:26:46;103433.56;;;15.34;59.72
15314;BME280;7757;52.626;4.746;2023-02-10T10:29:41;103435.22;;;15.35;59.71
15314;BME280;7757;52.626;4.746;2023-02-10T10:32:36;103437.78;;;15.37;59.40
15314;BME280;7757;52.626;4.746;2023-02-10T10:35:28;103431.78;;;15.25;59.88
15314;BME280;7757;52.626;4.746;2023-02-10T10:38:20;103439.56;;;15.28;60.46
15314;BME280;7757;52.626;4.746;2023-02-10T10:41:12;103444.78;;;15.30;59.62
15314;BME280;7757;52.626;4.746;2023-02-10T10:43:58;103435.03;;;15.29;60.13
15314;BME280;7757;52.626;4.746;2023-02-10T10:46:47;103440.13;;;15.32;59.42
15314;BME280;7757;52.626;4.746;2023-02-10T10:49:41;103425.41;;;15.26;59.34
15314;BME280;7757;52.626;4.746;2023-02-10T10:52:35;103441.97;;;15.31;59.74
15314;BME280;7757;52.626;4.746;2023-02-10T10:55:25;103435.03;;;15.29;60.32
15314;BME280;7757;52.626;4.746;2023-02-10T10:58:23;103431.31;;;15.30;59.55
15314;BME280;7757;52.626;4.746;2023-02-10T11:01:11;103434.41;;;15.35;59.67
15314;BME280;7757;52.626;4.746;2023-02-10T11:04:06;103415.13;;;15.30;59.60
15314;BME280;7757;52.626;4.746;2023-02-10T11:06:56;103418.38;;;15.33;60.07
15314;BME280;7757;52.626;4.746;2023-02-10T11:09:49;103412.97;;;15.33;59.17
15314;BME280;7757;52.626;4.746;2023-02-10T11:12:37;103399.97;;;15.29;59.58
15314;BME280;7757;52.626;4.746;2023-02-10T11:15:37;103413.97;;;15.32;59.43
15314;BME280;7757;52.626;4.746;2023-02-10T11:18:24;103384.66;;;15.29;59.93
15314;BME280;7757;52.626;4.746;2023-02-10T11:21:15;103403.19;;;15.32;60.04
15314;BME280;7757;52.626;4.746;2023-02-10T11:24:01;103397.66;;;15.34;59.22
15314;BME280;7757;52.626;4.746;2023-02-10T11:26:59;103395.09;;;15.32;59.34
15314;BME280;7757;52.626;4.746;2023-02-10T11:29:50;103398.66;;;15.33;59.08
15314;BME280;7757;52.626;4.746;2023-02-10T11:32:40;103404.91;;;15.33;59.65
15314;BME280;7757;52.626;4.746;2023-02-10T11:35:26;103394.59;;;15.29;59.65
15314;BME280;7757;52.626;4.746;2023-02-10T11:38:17;103408.19;;;15.27;59.61
15314;BME280;7757;52.626;4.746;2023-02-10T11:41:06;103419.16;;;15.26;59.95
15314;BME280;7757;52.626;4.746;2023-02-10T11:43:54;103408.69;;;15.23;59.81
15314;BME280;7757;52.626;4.746;2023-02-10T11:46:40;103403.97;;;15.25;59.15
15314;BME280;7757;52.626;4.746;2023-02-10T11:49:29;103408.50;;;15.24;59.29
15314;BME280;7757;52.626;4.746;2023-02-10T11:52:18;103411.50;;;15.21;60.22
15314;BME280;7757;52.626;4.746;2023-02-10T11:55:11;103397.78;;;15.15;59.72
15314;BME280;7757;52.626;4.746;2023-02-10T11:58:07;103404.59;;;15.19;59.67
15314;BME280;7757;52.626;4.746;2023-02-10T12:01:20;103389.69;;;15.15;60.44
15314;BME280;7757;52.626;4.746;2023-02-10T12:04:19;103394.09;;;15.16;60.63
15314;BME280;7757;52.626;4.746;2023-02-10T12:07:22;103390.88;;;15.12;60.11
15314;BME280;7757;52.626;4.746;2023-02-10T12:10:17;103394.59;;;15.11;59.64
15314;BME280;7757;52.626;4.746;2023-02-10T12:13:16;103403.91;;;15.17;60.19
15314;BME280;7757;52.626;4.746;2023-02-10T12:16:14;103395.41;;;15.12;59.63
15314;BME280;7757;52.626;4.746;2023-02-10T12:19:04;103386.94;;;15.06;59.95
15314;BME280;7757;52.626;4.746;2023-02-10T12:22:02;103384.97;;;15.08;59.58
15314;BME280;7757;52.626;4.746;2023-02-10T12:25:01;103370.31;;;15.11;59.93
15314;BME280;7757;52.626;4.746;2023-02-10T12:27:58;103368.78;;;15.08;60.87
15314;BME280;7757;52.626;4.746;2023-02-10T12:30:53;103354.47;;;15.08;60.61
15314;BME280;7757;52.626;4.746;2023-02-10T12:33:53;103349.19;;;15.06;60.67
15314;BME280;7757;52.626;4.746;2023-02-10T12:36:48;103342.44;;;15.02;60.48
15314;BME280;7757;52.626;4.746;2023-02-10T12:39:44;103347.13;;;15.00;60.52
15314;BME280;7757;52.626;4.746;2023-02-10T12:42:44;103339.88;;;15.01;59.98
15314;BME280;7757;52.626;4.746;2023-02-10T12:45:41;103339.75;;;15.02;60.56
15314;BME280;7757;52.626;4.746;2023-02-10T12:48:32;103323.47;;;14.94;60.06
15314;BME280;7757;52.626;4.746;2023-02-10T12:51:34;103333.66;;;15.00;60.26
15314;BME280;7757;52.626;4.746;2023-02-10T12:54:29;103333.66;;;15.00;60.59
15314;BME280;7757;52.626;4.746;2023-02-10T12:57:20;103336.34;;;15.00;60.13
15314;BME280;7757;52.626;4.746;2023-02-10T13:00:19;103325.72;;;14.99;60.57
15314;BME280;7757;52.626;4.746;2023-02-10T13:03:15;103315.50;;;15.02;60.73
15314;BME280;7757;52.626;4.746;2023-02-10T13:06:11;103304.72;;;15.02;60.01
15314;BME280;7757;52.626;4.746;2023-02-10T13:09:03;103315.50;;;15.02;60.01
15314;BME280;7757;52.626;4.746;2023-02-10T13:15:15;103307.09;;;15.05;60.95
15314;BME280;7757;52.626;4.746;2023-02-10T13:18:15;103302.94;;;15.11;59.76
15314;BME280;7757;52.626;4.746;2023-02-10T13:21:07;103285.38;;;15.07;60.28
15314;BME280;7757;52.626;4.746;2023-02-10T13:24:00;103256.50;;;14.99;60.42
15314;BME280;7757;52.626;4.746;2023-02-10T13:27:02;103272.75;;;15.07;59.69
15314;BME280;7757;52.626;4.746;2023-02-10T13:29:59;103264.81;;;15.06;60.98
15314;BME280;7757;52.626;4.746;2023-02-10T13:32:57;103268.81;;;15.02;60.79
15314;BME280;7757;52.626;4.746;2023-02-10T13:35:53;103258.81;;;14.94;60.38
15314;BME280;7757;52.626;4.746;2023-02-10T13:38:39;103265.59;;;14.98;61.17
15314;BME280;7757;52.626;4.746;2023-02-10T13:41:30;103269.13;;;14.99;61.34
15314;BME280;7757;52.626;4.746;2023-02-10T13:44:32;103276.50;;;14.97;61.13
15314;BME280;7757;52.626;4.746;2023-02-10T13:47:28;103276.50;;;14.97;60.41
15314;BME280;7757;52.626;4.746;2023-02-10T13:50:24;103284.09;;;14.93;60.89
15314;BME280;7757;52.626;4.746;2023-02-10T13:53:28;103290.94;;;14.88;61.14
15314;BME280;7757;52.626;4.746;2023-02-10T13:56:25;103298.16;;;14.87;61.16
15314;BME280;7757;52.626;4.746;2023-02-10T13:59:26;103292.91;;;14.86;61.50
15314;BME280;7757;52.626;4.746;2023-02-10T14:02:17;103297.31;;;14.87;61.07
15314;BME280;7757;52.626;4.746;2023-02-10T14:05:24;103289.53;;;14.84;60.83
15314;BME280;7757;52.626;4.746;2023-02-10T14:08:23;103290.94;;;14.88;61.28
15314;BME280;7757;52.626;4.746;2023-02-10T14:11:27;103285.38;;;14.89;61.39
15314;BME280;7757;52.626;4.746;2023-02-10T14:14:20;103285.38;;;14.89;60.47
15314;BME280;7757;52.626;4.746;2023-02-10T14:17:20;103268.84;;;14.84;61.33
15314;BME280;7757;52.626;4.746;2023-02-10T14:20:17;103261.59;;;14.85;60.79
15314;BME280;7757;52.626;4.746;2023-02-10T14:23:18;103263.75;;;14.81;60.85
15314;BME280;7757;52.626;4.746;2023-02-10T14:26:12;103261.06;;;14.81;61.27
15314;BME280;7757;52.626;4.746;2023-02-10T14:29:00;103267.00;;;14.85;60.77
15314;BME280;7757;52.626;4.746;2023-02-10T14:31:52;103251.81;;;14.84;61.39
15314;BME280;7757;52.626;4.746;2023-02-10T14:34:40;103244.06;;;14.81;61.29
15314;BME280;7757;52.626;4.746;2023-02-10T14:37:27;103245.03;;;14.80;61.85
15314;BME280;7757;52.626;4.746;2023-02-10T14:40:17;103241.34;;;14.81;61.72
15314;BME280;7757;52.626;4.746;2023-02-10T14:43:04;103234.25;;;14.80;61.79
15314;BME280;7757;52.626;4.746;2023-02-10T14:45:50;103238.97;;;14.78;61.15
15314;BME280;7757;52.626;4.746;2023-02-10T14:48:37;103239.28;;;14.75;62.20
15314;BME280;7757;52.626;4.746;2023-02-10T14:51:24;103252.06;;;14.73;61.65
15314;BME280;7757;52.626;4.746;2023-02-10T14:54:15;103234.38;;;14.70;62.17
15314;BME280;7757;52.626;4.746;2023-02-10T14:57:10;103240.75;;;14.69;61.76
15314;BME280;7757;52.626;4.746;2023-02-10T14:59:58;103228.75;;;14.64;62.19
15314;BME280;7757;52.626;4.746;2023-02-10T15:02:56;103222.66;;;14.62;62.12
15314;BME280;7757;52.626;4.746;2023-02-10T15:05:48;103228.03;;;14.62;62.59